createdAt,value
2023-03-16T00:11:30.636Z,7.46
2023-03-16T00:26:21.597Z,7.38
2023-03-16T00:41:11.529Z,9.77
2023-03-16T00:56:01.769Z,8.30
2023-03-16T01:10:51.308Z,7.33
2023-03-16T01:25:41.915Z,9.80
2023-03-16T01:40:32.852Z,8.59
2023-03-16T01:55:23.367Z,9.48
2023-03-16T02:10:13.830Z,10.58
2023-03-16T02:25:03.492Z,9.37
2023-03-16T02:39:53.826Z,9.98
2023-03-16T02:54:43.840Z,11.04
2023-03-16T03:09:33.712Z,9.37
2023-03-16T03:24:25.257Z,10.18
2023-03-16T03:39:16.492Z,5.93
2023-03-16T04:23:47.269Z,9.76
2023-03-16T04:38:36.557Z,10.50
2023-03-16T04:53:26.915Z,11.43
2023-03-16T05:08:16.422Z,12.38
2023-03-16T05:23:06.264Z,13.48
2023-03-16T05:37:56.805Z,14.39
2023-03-16T06:08:29.468Z,15.39
2023-03-16T06:23:19.613Z,14.96
2023-03-16T06:38:09.221Z,17.28
2023-03-16T06:52:59.113Z,14.72
2023-03-16T07:07:50.445Z,19.82
2023-03-16T07:22:42.753Z,15.47
2023-03-16T07:37:34.049Z,14.19
2023-03-16T07:52:24.770Z,16.27
2023-03-16T08:07:16.593Z,8.94
2023-03-16T08:22:09.680Z,6.96
2023-03-16T08:37:01.658Z,5.64
2023-03-16T08:51:53.781Z,5.77
2023-03-16T09:06:46.507Z,8.33
2023-03-16T09:21:36.398Z,5.48
2023-03-16T09:36:27.289Z,4.14
2023-03-16T09:51:31.993Z,6.38
2023-03-16T10:06:25.855Z,3.63
2023-03-16T10:21:17.767Z,4.63
2023-03-16T10:36:17.685Z,3.54
2023-03-16T10:51:14.334Z,4.89
2023-03-16T11:06:06.208Z,2.72
2023-03-16T11:21:02.154Z,2.41
2023-03-16T11:36:18.000Z,1.91
2023-03-16T11:51:15.758Z,2.01
2023-03-16T12:06:24.896Z,1.37
2023-03-16T12:21:30.566Z,0.94
2023-03-16T12:36:35.488Z,2.20
2023-03-16T12:51:34.966Z,1.28
2023-03-16T13:06:36.142Z,1.87
2023-03-16T13:21:34.174Z,2.07
2023-03-16T13:36:28.323Z,8.02
2023-03-16T13:51:20.356Z,1.30
2023-03-16T14:06:24.693Z,2.20
2023-03-16T14:21:19.913Z,2.02
2023-03-16T14:36:13.646Z,0.80
2023-03-16T14:51:07.954Z,2.98
2023-03-16T15:05:59.820Z,1.12
2023-03-16T15:20:50.914Z,3.97
2023-03-16T15:35:42.042Z,3.39
2023-03-16T15:50:32.060Z,2.30
2023-03-16T16:20:29.265Z,5.27
2023-03-16T16:35:24.140Z,5.01
2023-03-16T17:05:25.378Z,4.71
2023-03-16T17:20:20.729Z,3.74
2023-03-16T17:35:13.550Z,6.56
2023-03-16T17:50:06.665Z,2.52
2023-03-16T18:04:56.297Z,2.99
2023-03-16T18:19:52.648Z,2.34
2023-03-16T18:49:46.916Z,3.89
2023-03-16T19:04:36.644Z,3.60
2023-03-16T19:19:26.816Z,3.66
2023-03-16T19:34:17.488Z,8.64
2023-03-16T19:49:17.047Z,11.80
2023-03-16T20:04:20.248Z,14.71
2023-03-16T20:19:15.618Z,11.34
2023-03-16T20:34:05.862Z,3.44
2023-03-16T21:03:55.590Z,3.52
2023-03-16T21:18:46.836Z,4.77
2023-03-16T21:33:37.373Z,4.83
2023-03-16T21:48:39.009Z,4.72
2023-03-16T22:03:49.669Z,6.60
2023-03-16T22:18:33.791Z,4.92
2023-03-16T22:33:29.452Z,6.64
2023-03-16T22:48:20.099Z,6.89
2023-03-16T23:03:16.820Z,6.33
2023-03-16T23:18:16.548Z,4.79
2023-03-16T23:33:11.339Z,8.57
2023-03-16T23:48:01.882Z,11.03
